ADDS - METARS form results

Aviation Digital Data Service (ADDS)

Output produced by METARs form (1047 UTC 26 October 2020)
found at http://aviationweather.gov/metar/data/
 
METAR text: KPNT 261035Z AUTO 35009KT 7SM OVC008 03/01 A3022 RMK AO2 T00250014
Conditions at: KPNT (PONTIAC , IL, US) observed 1035 UTC 26 October 2020
Temperature: 2.5°C (36°F)
Dewpoint: 1.4°C (35°F) [RH = 92%]
Pressure (altimeter): 30.22 inches Hg (1023.5 mb)
Winds: from the N (350 degrees) at 10 MPH (9 knots; 4.6 m/s)
Visibility: 7 miles (11 km)
Ceiling: 800 feet AGL
Clouds: overcast cloud deck at 800 feet AGL
Weather: automated observation with no human augmentation;
there may or may not be significant weather present at this time

METAR text: KPNT 261015Z AUTO 34009KT 10SM OVC010 03/01 A3021 RMK AO2 T00280011
Conditions at: KPNT (PONTIAC , IL, US) observed 1015 UTC 26 October 2020
Temperature: 2.8°C (37°F)
Dewpoint: 1.1°C (34°F) [RH = 89%]
Pressure (altimeter): 30.21 inches Hg (1023.1 mb)
Winds: from the NNW (340 degrees) at 10 MPH (9 knots; 4.6 m/s)
Visibility: 10 or more miles (16+ km)
Ceiling: 1000 feet AGL
Clouds: overcast cloud deck at 1000 feet AGL
Weather: automated observation with no human augmentation;
there may or may not be significant weather present at this time

METAR text: KPNT 260955Z AUTO 34013KT 10SM OVC010 03/01 A3019 RMK AO2 T00310012
Conditions at: KPNT (PONTIAC , IL, US) observed 0955 UTC 26 October 2020
Temperature: 3.1°C (38°F)
Dewpoint: 1.2°C (34°F) [RH = 87%]
Pressure (altimeter): 30.19 inches Hg (1022.4 mb)
Winds: from the NNW (340 degrees) at 15 MPH (13 knots; 6.7 m/s)
Visibility: 10 or more miles (16+ km)
Ceiling: 1000 feet AGL
Clouds: overcast cloud deck at 1000 feet AGL
Weather: automated observation with no human augmentation;
there may or may not be significant weather present at this time